Impacts TAF Board INFO
FOR SITUATIONAL AWARENESS. NOT TO BE USED FOR FLIGHT PLANNING PURPOSES.
IDs:

KTPA - Tampa Intl Arpt, FL, US

Issued at 1140 UTC 21 May 2018
Updated at 1313 UTC 21 May 2018
Potential Impact None Slight Moderate High
Time1253Z 21/14Z 21/15Z 21/16Z 21/17Z 21/18Z 21/19Z 21/20Z 21/21Z 21/22Z 21/23Z 22/00Z 22/01Z 22/02Z>>
Type OBS PRVL PRVL PRVL
  [TEMP]  
PRVL
  [TEMP]  
PRVL
  [TEMP]  
PRVL PRVL PRVL PRVL PRVL PRVL PRVL PRVL
VIS 10 >6 >6 >6
  [3]  
>6
  [3]  
>6
  [3]  
6 6 6 >6 >6 >6 >6 >6
CIG 250 70 70 40
  [25]  
40
  [25]  
40
  [25]  
25 25 25 25 25 25 60 60
Cover BKN BKN BKN BKN
  [BKN]  
BKN
  [BKN]  
BKN
  [BKN]  
BKN BKN BKN BKN BKN BKN BKN BKN
FltCat VFR VFR VFR VFR
  [MVFR]  
VFR
  [MVFR]  
VFR
  [MVFR]  
MVFR MVFR MVFR MVFR MVFR MVFR VFR VFR
WX -- VCSH VCSH VCTS
  [TSRA]  
VCTS
  [TSRA]  
VCTS
  [TSRA]  
-SHRA VCTS -SHRA VCTS -SHRA VCTS VCSH VCSH VCSH -- --
WDir 120 110 110 120
[120]
120
[120]
120
[120]
120 120 120 120 120 120 100 100
WSpd 7 7 7 8
  [8]  
8
  [8]  
8
  [8]  
8 8 8 7 7 7 5 5
WGst -- -- -- --
  [--]  
--
  [--]  
--
  [--]  
-- -- -- -- -- -- -- --

Raw TAF
KTPA 211140Z 2112/2218 10004KT P6SM FEW010 OVC070
  FM211400 11007KT P6SM VCSH SCT020 BKN070
  FM211600 12008KT P6SM VCTS SCT025CB BKN040
  TEMPO 2116/2119 3SM TSRA BKN025CB
  FM211900 12008KT 6SM -SHRA VCTS SCT010 BKN025CB
  FM212200 12007KT P6SM VCSH SCT010 BKN025
  FM220100 10005KT P6SM SCT025 BKN060
  FM221400 12006KT P6SM VCSH SCT025 BKN040


Raw METAR
KTPA 211253Z 12007KT 10SM FEW010 SCT060 BKN250 26/22 A3007 RMK AO2 SLP181 T02560222
KTPA 211153Z 11004KT 10SM FEW010 BKN065 BKN150 24/22 A3005 RMK AO2 SLP175 70107 T02390217 10239 20228 51009
KTPA 211053Z VRB03KT 10SM OVC070 23/21 A3005 RMK AO2 SLP174 T02280206

METAR Board
Radar Display
Forecast Discussion

FOR SITUATIONAL AWARENESS. NOT TO BE USED FOR FLIGHT PLANNING PURPOSES.